Airfield :
LOGIN :

Register | Disclaimer

   EN    FR    IT 

 










Legend :    VFR   Marginal VFR   IFR   Intensive IFR   Very Intensive IFR
Visi :
Ceiling :
>= 8 km
>= 3000ft
5 to 8 km
1000 to 3000 ft
1500m to 5 km
500 to 1000 ft
800 to 1500m
200 to 500 ft
< 800m
< 200 ft
Symbols :   Thunderstorms  Fog  Heavy snow  Heavy precipitations  Wind > 20 kt
SIGMETs :     Misc.  Thunderstorms  Icing  Turbulence  Mountain Waves  Volcanic Ashes







- Airport Elevation : 286 ft
- IATA code : TRF


ENTO - Sandefjord , Torp

CURRENT METAR :
  • 171350Z VRB02KT 2000 BR OVC003 02/02 Q1018 TEMPO 4000 BR

EXPIRED METARs :
  • 171320Z 00000KT 0600 R18/0900N R36/1600N FEW001 OVC003 02/02 Q1018 TEMPO 1200 BR
  • 171250Z VRB03KT 0450 R18/1000N R36/1300N FG VV003 02/02 Q1018 NOSIG
  • 171220Z 35004KT 0600 R18/0900D R36/0900N FG VV003 02/02 Q1019 NOSIG
  • 171150Z 02006KT 0300 R18/0700N R36/0500U FG VV002 02/02 Q1018 TEMPO 0400 FG
  • 171120Z 35005KT 290V010 0350 R18/0750N R36/0650N FG VV003 02/02 Q1019 TEMPO 0300 FG

TAF TAF ENTO
Valid from the 17 at 12:00 until the 18 at 12:00 UTC


1712/1812 02008KT 0200 FG VV001
TEMPO 1712/1715 5000 BR BKN008
BECMG 1715/1717 17012KT 4000 -DZRA BR OVC006
TEMPO 1717/1812 1200 DZRA BR OVC002
No reported NOTAMs for that airfield.



MET'MAP, your aeronautical weather chart ! - Copyright ORBIFLY December 2007 - Disclaimer

ORBIFLY MET'MAP TEAM :

Programming & Development : Alexandra Zaïnal
Concept & Development : Baudouin d'Aumeries
Co-Development & Prog : Marc-Olivier Méhu
Technical & hardware support : Manuel Goepfert

Contact : metmap@orbifly.com




SOURCES & CREDITS :

   NOAA